»·PEaware :: N234CL KOTH-KMFR

N234CL :: KOTH-KMFR

FLIGHT INFORMATION

Flight Status: Arrived
Operator: Privately registered:
United States
More flights under this callsign
Pilot: Christian L. (6360)
Aircraft: PIPER PA-24 COMMANCHE
(PA24)
More flights by this aircraft type
Origin: KOTH North Bend Mun
United States
Destination: KMFR Rogue Valley Intl-Medford
United States
More flights between these airports :: More routes between these airports
Route: OTH6 OTH V121 RBG V448 OED
File this flight plan on PilotEdge
Remarks: VFR-ON-TOP
Altitude:
(Current/Filed)
7,000ft
Speed:
(Current/Filed)
140kts
Departed: 05-Nov-17 10:28 AM
Arrived: 05-Nov-17 11:27 AM
Distance/Time
Traveled:
87nm/0:58
Distance/Time
To Go:
Arrived

Flight Plot

Page will automatically refresh every two minutes.

Flight plan parsing failed; only flown route is shown


Map Options




Map Legend


Flown Route
Filed Route
Departure Airport
Arrival Airport
Navaid (VOR, NDB)
Fix

Horizontal Profiles

Position Reports

Time Latitude Longitude Heading Altitude Ground
Speed
05-Nov-17 10:16 43.412800 -124.243434 236 20ft 0kts
05-Nov-17 10:17 43.412798 -124.243438 236 20ft 0kts
05-Nov-17 10:18 43.412796 -124.243442 236 20ft 0kts
05-Nov-17 10:19 43.412794 -124.243447 236 20ft 0kts
05-Nov-17 10:20 43.412791 -124.243451 236 20ft 0kts
05-Nov-17 10:21 43.412789 -124.243455 235 20ft 0kts
05-Nov-17 10:22 43.412787 -124.243459 235 20ft 0kts
05-Nov-17 10:23 43.412767 -124.243327 23 20ft 1kts
05-Nov-17 10:24 43.411327 -124.240638 65 20ft 11kts
05-Nov-17 10:25 43.411458 -124.240359 54 20ft 0kts
05-Nov-17 10:26 43.411460 -124.240354 54 20ft 0kts
05-Nov-17 10:27 43.411463 -124.240350 54 20ft 0kts
05-Nov-17 10:28 43.411464 -124.240346 54 20ft 0kts
05-Nov-17 10:29 43.411466 -124.240344 54 20ft 0kts
05-Nov-17 10:30 43.411467 -124.240341 54 20ft 0kts
05-Nov-17 10:31 43.411470 -124.240336 54 20ft 0kts
05-Nov-17 10:32 43.412135 -124.240078 356 20ft 5kts
05-Nov-17 10:33 43.414476 -124.241967 327 20ft 71kts
05-Nov-17 10:34 43.422250 -124.270650 239 1477ft 90kts
05-Nov-17 10:35 43.422499 -124.301506 351 2600ft 124kts
05-Nov-17 10:36 43.432335 -124.264806 99 3763ft 116kts
05-Nov-17 10:37 43.425232 -124.219548 101 4857ft 125kts
05-Nov-17 10:38 43.418699 -124.172012 107 5974ft 128kts
05-Nov-17 10:39 43.404638 -124.126453 121 7015ft 131kts
05-Nov-17 10:40 43.386504 -124.078873 126 7599ft 153kts
05-Nov-17 10:41 43.362036 -124.028401 116 7609ft 166kts
05-Nov-17 10:42 43.351613 -123.970133 117 7484ft 172kts
05-Nov-17 10:43 43.328155 -123.906111 127 7470ft 170kts
05-Nov-17 10:44 43.309200 -123.846280 112 7505ft 173kts
05-Nov-17 10:45 43.311394 -123.778627 87 7506ft 178kts
05-Nov-17 10:46 43.311313 -123.711115 107 7504ft 175kts
05-Nov-17 10:47 43.295341 -123.648807 119 7504ft 172kts
05-Nov-17 10:48 43.272636 -123.591565 126 7505ft 169kts
05-Nov-17 10:49 43.249867 -123.534849 122 7505ft 171kts
05-Nov-17 10:50 43.228562 -123.476262 122 7506ft 171kts
05-Nov-17 10:51 43.206952 -123.417998 122 7505ft 171kts
05-Nov-17 10:52 43.185316 -123.360009 123 7505ft 171kts
05-Nov-17 10:53 43.152055 -123.322199 170 7508ft 154kts
05-Nov-17 10:54 43.111131 -123.305011 163 7506ft 157kts
05-Nov-17 10:55 43.071295 -123.280960 163 7504ft 157kts
05-Nov-17 10:56 43.031468 -123.256090 163 7505ft 157kts
05-Nov-17 10:57 43.019579 -123.248586 163 7505ft 157kts
05-Nov-17 11:10 42.562228 -122.967669 161 7506ft 158kts
05-Nov-17 11:11 42.522728 -122.941329 161 7506ft 158kts
05-Nov-17 11:12 42.484367 -122.931337 237 7493ft 136kts
05-Nov-17 11:13 42.487607 -122.981233 307 7381ft 156kts
05-Nov-17 11:14 42.527339 -123.010548 324 6911ft 157kts
05-Nov-17 11:15 42.565283 -123.036422 324 6985ft 150kts
05-Nov-17 11:16 42.603125 -123.062347 325 6982ft 153kts
05-Nov-17 11:17 42.640969 -123.088085 325 7008ft 153kts
05-Nov-17 11:18 42.680183 -123.092852 55 6977ft 175kts
05-Nov-17 11:19 42.680189 -123.041113 130 6879ft 121kts
05-Nov-17 11:20 42.656080 -123.017874 172 7003ft 106kts
05-Nov-17 11:21 42.627177 -123.005682 159 6795ft 113kts
05-Nov-17 11:22 42.598216 -122.990098 169 6014ft 108kts
05-Nov-17 11:23 42.568874 -122.974273 162 5169ft 107kts
05-Nov-17 11:24 42.542892 -122.961698 161 4714ft 98kts
05-Nov-17 11:25 42.516238 -122.945443 163 4018ft 105kts
05-Nov-17 11:26 42.491206 -122.934627 156 3404ft 92kts
05-Nov-17 11:27 42.467019 -122.921506 162 3020ft 102kts
05-Nov-17 11:28 42.444038 -122.909443 160 2594ft 83kts
05-Nov-17 11:29 42.425925 -122.900031 168 2194ft 85kts
05-Nov-17 11:30 42.404156 -122.888508 162 1733ft 81kts
05-Nov-17 11:31 42.384302 -122.878163 162 1346ft 65kts
05-Nov-17 11:32 42.376279 -122.874574 242 1338ft 7kts

Navigation Log

Ident Type
Flight plan parsing failed, navigation log unavailable